createdAt,value
2022-10-02T00:01:58.985Z,2.70
2022-10-02T00:04:33.956Z,2.00
2022-10-02T00:07:07.149Z,2.55
2022-10-02T00:09:43.048Z,2.65
2022-10-02T00:12:15.337Z,2.35
2022-10-02T00:14:46.489Z,2.88
2022-10-02T00:17:21.894Z,2.42
2022-10-02T00:19:54.001Z,2.22
2022-10-02T00:22:42.598Z,1.98
2022-10-02T00:25:21.194Z,1.63
2022-10-02T00:28:02.314Z,1.40
2022-10-02T00:30:38.058Z,1.75
2022-10-02T00:33:19.288Z,1.98
2022-10-02T00:36:02.481Z,1.70
2022-10-02T00:38:42.471Z,1.48
2022-10-02T00:41:49.374Z,2.00
2022-10-02T00:44:38.463Z,1.25
2022-10-02T00:47:15.856Z,2.00
2022-10-02T00:49:59.504Z,2.55
2022-10-02T00:52:43.883Z,1.77
2022-10-02T00:55:24.070Z,1.60
2022-10-02T00:58:04.788Z,1.90
2022-10-02T01:00:33.077Z,2.17
2022-10-02T01:03:19.081Z,3.08
2022-10-02T01:05:48.620Z,2.15
2022-10-02T01:08:17.702Z,2.45
2022-10-02T01:10:46.638Z,2.17
2022-10-02T01:13:14.631Z,1.60
2022-10-02T01:15:47.755Z,1.73
2022-10-02T01:18:16.308Z,4.43
2022-10-02T01:20:47.617Z,2.40
2022-10-02T01:23:25.728Z,1.73
2022-10-02T01:25:55.188Z,1.92
2022-10-02T01:28:23.762Z,1.42
2022-10-02T01:30:55.843Z,1.70
2022-10-02T01:33:24.080Z,2.05
2022-10-02T01:35:52.362Z,1.70
2022-10-02T01:38:24.686Z,1.83
2022-10-02T01:40:52.643Z,2.10
2022-10-02T01:43:25.455Z,2.08
2022-10-02T01:46:02.546Z,1.77
2022-10-02T01:48:43.274Z,2.72
2022-10-02T01:51:23.141Z,2.00
2022-10-02T01:53:57.773Z,1.77
2022-10-02T01:56:36.037Z,2.50
2022-10-02T01:59:17.192Z,2.10
2022-10-02T02:01:52.942Z,2.58
2022-10-02T02:04:24.974Z,1.88
2022-10-02T02:06:58.879Z,2.35
2022-10-02T02:09:34.808Z,2.67
2022-10-02T02:12:11.079Z,2.65
2022-10-02T02:14:45.954Z,2.28
2022-10-02T02:17:21.333Z,2.88
2022-10-02T02:19:53.497Z,2.42
2022-10-02T02:22:39.255Z,2.30
2022-10-02T02:25:12.015Z,3.33
2022-10-02T02:27:43.166Z,2.78
2022-10-02T02:30:15.620Z,2.33
2022-10-02T02:32:49.073Z,3.92
2022-10-02T02:37:50.176Z,2.67
2022-10-02T02:40:23.809Z,2.60
2022-10-02T02:42:58.106Z,3.00
2022-10-02T02:45:31.495Z,2.83
2022-10-02T02:50:35.534Z,2.83
2022-10-02T02:53:07.896Z,3.13
2022-10-02T02:55:45.032Z,4.38
2022-10-02T02:58:18.909Z,3.72
2022-10-02T03:00:48.555Z,4.15
2022-10-02T03:03:16.632Z,3.70
2022-10-02T03:05:49.975Z,4.38
2022-10-02T03:08:24.034Z,4.03
2022-10-02T03:11:05.353Z,4.82
2022-10-02T03:13:45.143Z,5.55
2022-10-02T03:16:25.733Z,4.15
2022-10-02T03:19:07.358Z,6.60
2022-10-02T03:21:41.856Z,4.45
2022-10-02T03:24:17.733Z,5.40
2022-10-02T03:26:51.852Z,5.75
2022-10-02T03:29:24.382Z,5.25
2022-10-02T03:31:55.654Z,6.68
2022-10-02T03:34:24.787Z,5.80
2022-10-02T03:36:53.023Z,6.65
2022-10-02T03:39:25.240Z,5.88
2022-10-02T03:41:54.818Z,5.30
2022-10-02T03:44:22.711Z,6.85
2022-10-02T03:46:51.305Z,6.43
2022-10-02T03:49:20.685Z,7.00
2022-10-02T03:51:48.602Z,6.82
2022-10-02T03:54:19.816Z,6.38
2022-10-02T03:56:55.512Z,6.93
2022-10-02T03:59:36.365Z,6.93
2022-10-02T04:02:09.999Z,7.13
2022-10-02T04:04:47.147Z,7.68
2022-10-02T04:07:20.221Z,7.55
2022-10-02T04:09:56.557Z,6.90
2022-10-02T04:12:30.180Z,7.90
2022-10-02T04:15:03.172Z,7.00
2022-10-02T04:17:43.920Z,5.53
2022-10-02T04:20:19.543Z,6.82
2022-10-02T04:22:53.920Z,6.10
2022-10-02T04:25:26.170Z,6.10
2022-10-02T04:27:58.654Z,5.50
2022-10-02T04:30:26.955Z,5.32
2022-10-02T04:32:55.101Z,5.60
2022-10-02T04:35:33.380Z,6.00
2022-10-02T04:38:22.750Z,5.80
2022-10-02T04:41:10.373Z,5.15
2022-10-02T04:43:54.159Z,5.38
2022-10-02T04:46:44.159Z,6.25
2022-10-02T04:49:47.648Z,5.65
2022-10-02T04:52:34.555Z,6.55
2022-10-02T04:55:33.420Z,6.72
2022-10-02T04:58:22.300Z,7.28
2022-10-02T05:01:00.918Z,7.13
2022-10-02T05:03:43.880Z,8.15
2022-10-02T05:06:25.286Z,7.40
2022-10-02T05:09:05.239Z,8.50
2022-10-02T05:12:08.579Z,7.38
2022-10-02T05:14:55.881Z,7.93
2022-10-02T05:17:40.879Z,7.50
2022-10-02T05:20:26.925Z,8.80
2022-10-02T05:23:11.903Z,6.53
2022-10-02T05:26:01.401Z,7.47
2022-10-02T05:29:04.217Z,7.05
2022-10-02T05:31:48.619Z,8.20
2022-10-02T05:34:35.625Z,8.55
2022-10-02T05:37:22.063Z,8.45
2022-10-02T05:39:57.112Z,8.48
2022-10-02T05:42:33.815Z,9.13
2022-10-02T05:45:04.920Z,10.27
2022-10-02T05:47:38.135Z,8.18
2022-10-02T05:50:15.833Z,9.13
2022-10-02T05:52:48.544Z,10.77
2022-10-02T05:55:23.015Z,8.95
2022-10-02T05:57:57.100Z,10.52
2022-10-02T06:00:33.590Z,9.13
2022-10-02T06:03:10.951Z,9.20
2022-10-02T06:05:47.173Z,9.07
2022-10-02T06:08:17.577Z,9.25
2022-10-02T06:10:51.550Z,9.50
2022-10-02T06:13:28.508Z,8.90
2022-10-02T06:16:03.862Z,9.68
2022-10-02T06:18:36.367Z,9.50
2022-10-02T06:21:08.420Z,8.20
2022-10-02T06:23:40.598Z,7.70
2022-10-02T06:26:13.783Z,9.98
2022-10-02T06:28:49.240Z,8.38
2022-10-02T06:31:21.962Z,8.80
2022-10-02T06:33:52.749Z,8.38
2022-10-02T06:36:41.086Z,8.43
2022-10-02T06:39:25.874Z,8.35
2022-10-02T06:42:06.627Z,7.43
2022-10-02T06:44:42.736Z,8.93
2022-10-02T06:47:21.327Z,7.40
2022-10-02T06:50:03.598Z,8.15
2022-10-02T06:52:39.767Z,7.53
2022-10-02T06:55:24.759Z,6.63
2022-10-02T06:58:06.719Z,6.68
2022-10-02T07:00:47.423Z,6.07
2022-10-02T07:03:32.798Z,6.75
2022-10-02T07:06:14.017Z,6.63
2022-10-02T07:09:07.642Z,5.40
2022-10-02T07:11:47.083Z,4.80
2022-10-02T07:17:11.266Z,4.90
2022-10-02T07:20:06.825Z,4.45
2022-10-02T07:22:58.450Z,4.40
2022-10-02T07:25:58.152Z,5.47
2022-10-02T07:28:33.858Z,4.53
2022-10-02T07:31:09.024Z,3.70
2022-10-02T07:33:48.549Z,4.18
2022-10-02T07:36:25.303Z,4.97
2022-10-02T07:39:13.764Z,4.47
2022-10-02T07:42:26.281Z,4.55
2022-10-02T07:45:19.358Z,4.03
2022-10-02T07:48:14.376Z,4.65
2022-10-02T07:51:00.942Z,4.03
2022-10-02T07:53:39.862Z,4.05
2022-10-02T07:56:11.739Z,3.65
2022-10-02T07:58:56.048Z,3.05
2022-10-02T08:01:34.779Z,4.13
2022-10-02T08:04:06.900Z,3.30
2022-10-02T08:06:37.596Z,3.88
2022-10-02T08:09:12.896Z,3.45
2022-10-02T08:11:49.504Z,3.40
2022-10-02T08:14:24.398Z,3.67
2022-10-02T08:16:55.644Z,3.28
2022-10-02T08:19:29.848Z,4.25
2022-10-02T08:22:04.144Z,2.90
2022-10-02T08:24:37.559Z,3.78
2022-10-02T08:27:10.247Z,3.47
2022-10-02T08:29:43.619Z,3.20
2022-10-02T08:32:12.937Z,3.25
2022-10-02T08:34:42.345Z,4.53
2022-10-02T08:37:29.812Z,3.50
2022-10-02T08:40:37.159Z,3.03
2022-10-02T08:43:47.370Z,3.85
2022-10-02T08:46:58.454Z,3.40
2022-10-02T08:50:15.228Z,2.60
2022-10-02T08:53:34.498Z,2.90
2022-10-02T08:56:16.448Z,2.60
2022-10-02T08:59:18.223Z,2.63
2022-10-02T09:02:30.166Z,3.70
2022-10-02T09:05:39.581Z,2.92
2022-10-02T09:08:46.113Z,3.15
2022-10-02T09:11:37.315Z,3.10
2022-10-02T09:14:22.789Z,2.65
2022-10-02T09:17:30.724Z,3.50
2022-10-02T09:20:18.905Z,3.22
2022-10-02T09:23:13.546Z,2.58
2022-10-02T09:25:50.517Z,2.50
2022-10-02T09:29:20.474Z,2.60
2022-10-02T09:32:19.795Z,2.50
2022-10-02T09:35:23.045Z,2.42
2022-10-02T09:38:16.002Z,3.25
2022-10-02T09:41:27.909Z,2.22
2022-10-02T09:44:34.145Z,2.25
2022-10-02T09:47:37.564Z,2.65
2022-10-02T09:50:49.888Z,2.70
2022-10-02T09:53:54.248Z,2.00
2022-10-02T09:57:01.018Z,2.15
2022-10-02T09:59:58.219Z,1.73
2022-10-02T10:03:08.700Z,2.20
2022-10-02T10:06:09.598Z,2.08
2022-10-02T10:08:59.346Z,2.38
2022-10-02T10:12:06.372Z,1.60
2022-10-02T10:15:08.965Z,1.63
2022-10-02T10:18:19.220Z,1.88
2022-10-02T10:21:08.291Z,1.33
2022-10-02T10:24:31.323Z,1.52
2022-10-02T10:27:17.889Z,2.50
2022-10-02T10:30:10.039Z,1.55
2022-10-02T10:33:10.333Z,1.80
2022-10-02T10:35:54.795Z,1.55
2022-10-02T10:38:43.945Z,2.58
2022-10-02T10:41:49.153Z,1.90
2022-10-02T10:44:41.076Z,1.55
2022-10-02T10:47:31.968Z,1.80
2022-10-02T10:50:37.107Z,2.53
2022-10-02T10:53:47.623Z,1.75
2022-10-02T10:56:37.005Z,1.40
2022-10-02T10:59:27.679Z,1.55
2022-10-02T11:02:13.849Z,1.95
2022-10-02T11:05:03.604Z,2.35
2022-10-02T11:07:50.393Z,1.60
2022-10-02T11:10:47.897Z,1.83
2022-10-02T11:13:28.767Z,1.80
2022-10-02T11:16:31.680Z,1.60
2022-10-02T11:19:22.145Z,1.70
2022-10-02T11:22:16.095Z,2.08
2022-10-02T11:25:12.821Z,1.88
2022-10-02T11:27:59.444Z,2.63
2022-10-02T11:30:41.435Z,1.95
2022-10-02T11:33:31.058Z,1.75
2022-10-02T11:36:24.379Z,2.20
2022-10-02T11:39:26.622Z,1.83
2022-10-02T11:42:27.501Z,1.95
2022-10-02T11:45:16.405Z,1.65
2022-10-02T11:48:09.177Z,2.30
2022-10-02T11:50:58.536Z,2.17
2022-10-02T11:54:10.977Z,1.70
2022-10-02T11:57:00.673Z,2.50
2022-10-02T11:59:57.555Z,3.05
2022-10-02T12:02:32.624Z,2.33
2022-10-02T12:05:17.919Z,2.67
2022-10-02T12:07:58.260Z,2.72
2022-10-02T12:10:41.416Z,4.30
2022-10-02T12:13:43.101Z,2.30
2022-10-02T12:16:20.923Z,2.63
2022-10-02T12:19:05.029Z,1.33
2022-10-02T12:22:11.478Z,1.77
2022-10-02T12:25:06.452Z,1.77
2022-10-02T12:27:46.203Z,1.80
2022-10-02T12:30:19.884Z,2.00
2022-10-02T12:33:01.777Z,1.63
2022-10-02T12:36:05.349Z,1.88
2022-10-02T12:41:18.731Z,1.55
2022-10-02T12:47:00.521Z,2.25
2022-10-02T12:49:40.477Z,1.80
2022-10-02T12:52:50.623Z,1.58
2022-10-02T12:55:52.009Z,1.50
2022-10-02T12:58:32.437Z,1.90
2022-10-02T13:01:22.452Z,1.50
2022-10-02T13:04:39.072Z,1.95
2022-10-02T13:07:55.778Z,1.88
2022-10-02T13:10:27.571Z,2.85
2022-10-02T13:13:17.413Z,2.95
2022-10-02T13:15:54.804Z,2.80
2022-10-02T13:18:43.848Z,2.10
2022-10-02T13:21:18.813Z,1.88
2022-10-02T13:24:00.990Z,1.70
2022-10-02T13:26:42.480Z,1.60
2022-10-02T13:29:32.752Z,1.98
2022-10-02T13:32:16.996Z,2.20
2022-10-02T13:35:15.685Z,4.13
2022-10-02T13:37:56.835Z,1.85
2022-10-02T13:40:31.086Z,1.48
2022-10-02T13:43:42.302Z,2.30
2022-10-02T13:46:26.933Z,1.73
2022-10-02T13:49:07.523Z,1.42
2022-10-02T13:51:46.625Z,1.88
2022-10-02T13:54:30.255Z,1.20
2022-10-02T13:57:06.811Z,1.40
2022-10-02T13:59:50.661Z,6.28
2022-10-02T14:02:38.691Z,3.13
2022-10-02T14:05:11.416Z,1.50
2022-10-02T14:08:02.470Z,1.50
2022-10-02T14:10:41.182Z,2.15
2022-10-02T14:13:25.111Z,1.98
2022-10-02T14:16:07.476Z,2.30
2022-10-02T14:18:49.306Z,1.50
2022-10-02T14:21:26.755Z,2.42
2022-10-02T14:24:11.517Z,1.95
2022-10-02T14:26:55.025Z,1.20
2022-10-02T14:29:36.838Z,1.58
2022-10-02T14:32:26.185Z,1.50
2022-10-02T14:35:15.944Z,1.95
2022-10-02T14:38:05.714Z,1.67
2022-10-02T14:40:46.978Z,1.17
2022-10-02T14:43:37.783Z,1.50
2022-10-02T14:46:38.067Z,1.50
2022-10-02T14:49:35.755Z,2.28
2022-10-02T14:52:51.623Z,1.40
2022-10-02T14:55:33.994Z,1.60
2022-10-02T14:58:17.314Z,1.00
2022-10-02T15:01:01.928Z,1.08
2022-10-02T15:03:43.468Z,1.17
2022-10-02T15:06:23.743Z,1.02
2022-10-02T15:08:57.091Z,2.60
2022-10-02T15:11:52.845Z,1.65
2022-10-02T15:14:26.803Z,1.40
2022-10-02T15:17:18.300Z,2.30
2022-10-02T15:22:22.529Z,1.10
2022-10-02T15:24:57.056Z,2.35
2022-10-02T15:27:29.908Z,2.22
2022-10-02T15:30:06.175Z,1.60
2022-10-02T15:32:49.603Z,1.60
2022-10-02T15:35:28.494Z,1.80
2022-10-02T15:38:32.263Z,2.33
2022-10-02T15:41:29.623Z,1.55
2022-10-02T15:44:09.709Z,1.63
2022-10-02T15:46:51.593Z,1.50
2022-10-02T15:49:32.225Z,1.83
2022-10-02T15:52:11.430Z,1.77
2022-10-02T15:54:51.343Z,1.80
2022-10-02T15:57:45.521Z,1.70
2022-10-02T16:00:18.881Z,1.90
2022-10-02T16:03:00.897Z,2.00
2022-10-02T16:05:39.940Z,2.15
2022-10-02T16:08:23.524Z,1.45
2022-10-02T16:11:09.569Z,2.25
2022-10-02T16:13:48.065Z,1.95
2022-10-02T16:16:35.347Z,1.73
2022-10-02T16:19:14.293Z,1.98
2022-10-02T16:22:01.553Z,1.98
2022-10-02T16:24:48.870Z,2.65
2022-10-02T16:27:27.259Z,2.67
2022-10-02T16:30:08.196Z,2.13
2022-10-02T16:32:48.457Z,2.28
2022-10-02T16:35:26.077Z,2.60
2022-10-02T16:38:00.707Z,1.60
2022-10-02T16:40:40.378Z,2.30
2022-10-02T16:43:47.205Z,1.92
2022-10-02T16:46:20.179Z,2.20
2022-10-02T16:48:56.928Z,1.95
2022-10-02T16:51:36.041Z,2.90
2022-10-02T16:54:15.517Z,2.22
2022-10-02T16:59:17.237Z,2.80
2022-10-02T17:02:15.967Z,2.85
2022-10-02T17:04:47.889Z,3.00
2022-10-02T17:07:27.666Z,2.22
2022-10-02T17:10:02.288Z,3.65
2022-10-02T17:12:35.927Z,1.75
2022-10-02T17:15:15.263Z,4.28
2022-10-02T17:17:56.106Z,3.65
2022-10-02T17:20:29.674Z,2.50
2022-10-02T17:23:04.365Z,2.30
2022-10-02T17:25:43.189Z,2.22
2022-10-02T17:28:21.842Z,2.20
2022-10-02T17:31:18.772Z,3.45
2022-10-02T17:33:51.844Z,2.25
2022-10-02T17:36:31.119Z,2.40
2022-10-02T17:39:17.758Z,4.28
2022-10-02T17:41:53.912Z,2.17
2022-10-02T17:44:28.030Z,2.47
2022-10-02T17:47:21.098Z,2.60
2022-10-02T17:50:07.783Z,3.70
2022-10-02T17:53:02.273Z,2.63
2022-10-02T17:56:18.857Z,3.72
2022-10-02T17:58:56.014Z,3.53
2022-10-02T18:01:31.881Z,3.33
2022-10-02T18:04:13.299Z,2.15
2022-10-02T18:06:50.868Z,3.03
2022-10-02T18:09:38.562Z,2.53
2022-10-02T18:12:32.992Z,3.42
2022-10-02T18:15:16.911Z,2.85
2022-10-02T18:18:01.728Z,2.80
2022-10-02T18:20:35.369Z,2.72
2022-10-02T18:23:16.431Z,3.28
2022-10-02T18:26:00.141Z,2.55
2022-10-02T18:28:51.191Z,2.70
2022-10-02T18:31:54.539Z,2.78
2022-10-02T18:34:42.709Z,2.63
2022-10-02T18:37:25.240Z,2.20
2022-10-02T18:40:07.154Z,2.17
2022-10-02T18:42:50.167Z,2.80
2022-10-02T18:45:33.733Z,2.60
2022-10-02T18:48:31.962Z,2.35
2022-10-02T18:51:22.619Z,2.22
2022-10-02T18:54:10.636Z,2.35
2022-10-02T18:56:59.303Z,3.10
2022-10-02T18:59:45.997Z,2.25
2022-10-02T19:02:26.369Z,2.40
2022-10-02T19:05:10.762Z,3.45
2022-10-02T19:07:42.984Z,2.83
2022-10-02T19:10:40.729Z,2.42
2022-10-02T19:13:22.209Z,3.22
2022-10-02T19:15:53.371Z,2.50
2022-10-02T19:18:23.640Z,2.53
2022-10-02T19:20:59.501Z,2.42
2022-10-02T19:23:35.553Z,2.50
2022-10-02T19:26:08.148Z,2.33
2022-10-02T19:28:45.689Z,2.38
2022-10-02T19:31:22.266Z,3.55
2022-10-02T19:33:54.699Z,3.45
2022-10-02T19:36:26.275Z,3.13
2022-10-02T19:38:57.144Z,4.03
2022-10-02T19:41:26.829Z,6.85
2022-10-02T19:43:59.770Z,4.95
2022-10-02T19:46:35.746Z,5.45
2022-10-02T19:49:05.741Z,4.22
2022-10-02T19:51:43.870Z,4.35
2022-10-02T19:54:17.379Z,4.28
2022-10-02T19:59:18.868Z,3.17
2022-10-02T20:01:52.078Z,3.03
2022-10-02T20:04:21.982Z,3.33
2022-10-02T20:06:56.691Z,3.63
2022-10-02T20:09:31.003Z,2.20
2022-10-02T20:12:03.176Z,3.08
2022-10-02T20:14:38.039Z,2.70
2022-10-02T20:17:09.035Z,2.50
2022-10-02T20:19:41.590Z,3.38
2022-10-02T20:22:20.025Z,3.15
2022-10-02T20:24:56.236Z,2.50
2022-10-02T20:27:29.806Z,2.90
2022-10-02T20:30:05.764Z,3.75
2022-10-02T20:32:42.004Z,2.40
2022-10-02T20:35:15.972Z,2.53
2022-10-02T20:37:46.656Z,3.00
2022-10-02T20:40:18.814Z,2.40
2022-10-02T20:42:53.298Z,2.50
2022-10-02T20:45:28.075Z,3.53
2022-10-02T20:48:26.680Z,5.15
2022-10-02T20:50:59.060Z,2.60
2022-10-02T20:53:58.675Z,3.15
2022-10-02T20:56:52.527Z,4.30
2022-10-02T20:59:53.531Z,2.97
2022-10-02T21:02:37.262Z,3.20
2022-10-02T21:05:39.019Z,3.65
2022-10-02T21:08:30.018Z,2.03
2022-10-02T21:11:20.000Z,1.98
2022-10-02T21:14:12.254Z,1.85
2022-10-02T21:17:20.908Z,2.38
2022-10-02T21:20:46.233Z,1.83
2022-10-02T21:24:06.976Z,1.73
2022-10-02T21:29:57.568Z,2.33
2022-10-02T21:32:41.108Z,2.42
2022-10-02T21:35:16.665Z,2.13
2022-10-02T21:38:01.280Z,2.08
2022-10-02T21:41:21.805Z,2.42
2022-10-02T21:44:28.136Z,2.10
2022-10-02T21:47:27.665Z,2.13
2022-10-02T21:50:23.290Z,2.95
2022-10-02T21:53:22.638Z,2.75
2022-10-02T21:56:33.636Z,2.28
2022-10-02T21:59:51.396Z,2.10
2022-10-02T22:02:51.835Z,1.77
2022-10-02T22:05:43.313Z,2.45
2022-10-02T22:08:21.011Z,3.08
2022-10-02T22:10:59.185Z,2.22
2022-10-02T22:13:33.309Z,2.35
2022-10-02T22:16:19.900Z,2.67
2022-10-02T22:18:52.650Z,2.88
2022-10-02T22:21:46.332Z,2.65
2022-10-02T22:24:29.819Z,2.60
2022-10-02T22:27:29.647Z,2.67
2022-10-02T22:29:58.894Z,1.95
2022-10-02T22:33:08.836Z,3.50
2022-10-02T22:36:03.246Z,2.55
2022-10-02T22:38:34.940Z,3.40
2022-10-02T22:41:08.176Z,3.70
2022-10-02T22:43:45.580Z,2.78
2022-10-02T22:46:24.772Z,3.17
2022-10-02T22:48:58.392Z,2.13
2022-10-02T22:51:36.973Z,2.65
2022-10-02T22:54:17.350Z,2.22
2022-10-02T22:56:52.214Z,2.20
2022-10-02T22:59:29.178Z,2.67
2022-10-02T23:02:04.767Z,2.15
2022-10-02T23:04:39.236Z,2.10
2022-10-02T23:07:17.522Z,3.22
2022-10-02T23:09:51.565Z,2.83
2022-10-02T23:12:28.112Z,2.47
2022-10-02T23:15:05.091Z,4.28
2022-10-02T23:17:38.814Z,4.25
2022-10-02T23:20:14.593Z,3.28
2022-10-02T23:22:53.300Z,1.98
2022-10-02T23:25:28.125Z,2.58
2022-10-02T23:28:02.218Z,2.17
2022-10-02T23:30:35.645Z,3.03
2022-10-02T23:33:15.288Z,2.78
2022-10-02T23:35:49.889Z,2.25
2022-10-02T23:38:23.658Z,2.65
2022-10-02T23:41:20.473Z,2.83
2022-10-02T23:43:57.762Z,2.53
2022-10-02T23:46:29.680Z,1.90
2022-10-02T23:48:59.015Z,1.92
2022-10-02T23:51:41.950Z,2.00
2022-10-02T23:54:30.952Z,2.47
2022-10-02T23:57:19.905Z,2.00
